Porto Belo, Brazil
Current Conditions -  °F | °C
As of 1:00 PM on Friday 24 Oct 2014 (Local Time) from SBNF Reporting Station
Broken Clouds Broken Clouds  
Wind Chill: 79°   Ceiling: 5000
Heat Index: 80°   Visibility: 6mi
Dew Point: 63°   Wind: 13mph
Humidity: 57%   Direction: 60°ENE
Pressure: 29.97"   Gusts: NA
Location:  27.16°S, 48.55°W
Report Text: SBNF 241500Z 06011KT 9999 SCT025 BKN050 26/17 Q1015
Loading
Personal Weather Stations






























Interactive Weather Map
Tropical Storm Tracking
New forecast layout! Learn more

10-Day Weather Forecast

Advertisements
Track Severe Weather on mobile